sensor_id;sensor_type;location;lat;lon;timestamp;temperature;humidity
18041;DHT22;9145;48.588;9.250;2023-12-14T00:02:09;6.20;99.90
18041;DHT22;9145;48.588;9.250;2023-12-14T00:04:36;6.20;99.90
18041;DHT22;9145;48.588;9.250;2023-12-14T00:07:03;6.30;99.90
18041;DHT22;9145;48.588;9.250;2023-12-14T00:09:31;6.30;99.90
18041;DHT22;9145;48.588;9.250;2023-12-14T00:11:58;6.30;99.90
18041;DHT22;9145;48.588;9.250;2023-12-14T00:14:25;6.30;99.90
18041;DHT22;9145;48.588;9.250;2023-12-14T00:16:51;6.30;99.90
18041;DHT22;9145;48.588;9.250;2023-12-14T00:19:18;6.40;99.90
18041;DHT22;9145;48.588;9.250;2023-12-14T00:21:45;6.40;99.90
18041;DHT22;9145;48.588;9.250;2023-12-14T00:24:12;6.50;99.90
18041;DHT22;9145;48.588;9.250;2023-12-14T00:26:40;6.50;99.90
18041;DHT22;9145;48.588;9.250;2023-12-14T00:29:07;6.50;99.90
18041;DHT22;9145;48.588;9.250;2023-12-14T00:31:33;6.60;99.90
18041;DHT22;9145;48.588;9.250;2023-12-14T00:34:00;6.60;99.90
18041;DHT22;9145;48.588;9.250;2023-12-14T00:36:28;6.70;99.90
18041;DHT22;9145;48.588;9.250;2023-12-14T00:38:55;6.70;99.90
18041;DHT22;9145;48.588;9.250;2023-12-14T00:41:22;6.60;99.90
18041;DHT22;9145;48.588;9.250;2023-12-14T00:43:50;6.60;99.90
18041;DHT22;9145;48.588;9.250;2023-12-14T00:46:17;6.50;99.90
18041;DHT22;9145;48.588;9.250;2023-12-14T00:48:44;6.40;99.90
18041;DHT22;9145;48.588;9.250;2023-12-14T00:51:11;6.30;99.90
18041;DHT22;9145;48.588;9.250;2023-12-14T00:53:37;6.20;99.90
18041;DHT22;9145;48.588;9.250;2023-12-14T00:56:06;6.20;99.90
18041;DHT22;9145;48.588;9.250;2023-12-14T00:58:33;6.20;99.90
18041;DHT22;9145;48.588;9.250;2023-12-14T01:01:01;6.30;99.90
18041;DHT22;9145;48.588;9.250;2023-12-14T01:03:28;6.20;99.90
18041;DHT22;9145;48.588;9.250;2023-12-14T01:05:55;6.30;99.90
18041;DHT22;9145;48.588;9.250;2023-12-14T01:08:22;6.30;99.90
18041;DHT22;9145;48.588;9.250;2023-12-14T01:10:49;6.40;99.90
18041;DHT22;9145;48.588;9.250;2023-12-14T01:13:15;6.40;99.90
18041;DHT22;9145;48.588;9.250;2023-12-14T01:15:42;6.50;99.90
18041;DHT22;9145;48.588;9.250;2023-12-14T01:18:10;6.60;99.90
18041;DHT22;9145;48.588;9.250;2023-12-14T01:20:38;6.60;99.90
18041;DHT22;9145;48.588;9.250;2023-12-14T01:23:05;6.60;99.90
18041;DHT22;9145;48.588;9.250;2023-12-14T01:25:34;6.60;99.90
18041;DHT22;9145;48.588;9.250;2023-12-14T01:28:01;6.50;99.90
18041;DHT22;9145;48.588;9.250;2023-12-14T01:30:28;6.60;99.90
18041;DHT22;9145;48.588;9.250;2023-12-14T01:32:55;6.50;99.90
18041;DHT22;9145;48.588;9.250;2023-12-14T01:35:23;6.50;99.90
18041;DHT22;9145;48.588;9.250;2023-12-14T01:37:50;6.50;99.90
18041;DHT22;9145;48.588;9.250;2023-12-14T01:40:19;6.50;99.90
18041;DHT22;9145;48.588;9.250;2023-12-14T01:42:46;6.50;99.90
18041;DHT22;9145;48.588;9.250;2023-12-14T01:45:13;6.50;99.90
18041;DHT22;9145;48.588;9.250;2023-12-14T01:47:41;6.50;99.90
18041;DHT22;9145;48.588;9.250;2023-12-14T01:50:08;6.60;99.90
18041;DHT22;9145;48.588;9.250;2023-12-14T01:52:36;6.60;99.90
18041;DHT22;9145;48.588;9.250;2023-12-14T01:55:04;6.60;99.90
18041;DHT22;9145;48.588;9.250;2023-12-14T01:57:31;6.70;99.90
18041;DHT22;9145;48.588;9.250;2023-12-14T01:59:57;6.70;99.90
18041;DHT22;9145;48.588;9.250;2023-12-14T02:02:24;6.70;99.90
18041;DHT22;9145;48.588;9.250;2023-12-14T02:04:51;6.80;99.90
18041;DHT22;9145;48.588;9.250;2023-12-14T02:07:18;6.80;99.90
18041;DHT22;9145;48.588;9.250;2023-12-14T02:09:46;6.80;99.90
18041;DHT22;9145;48.588;9.250;2023-12-14T02:12:13;6.80;99.90
18041;DHT22;9145;48.588;9.250;2023-12-14T02:14:40;6.80;99.90
18041;DHT22;9145;48.588;9.250;2023-12-14T02:17:06;6.80;99.90
18041;DHT22;9145;48.588;9.250;2023-12-14T02:19:33;6.90;99.90
18041;DHT22;9145;48.588;9.250;2023-12-14T02:22:00;6.90;99.90
18041;DHT22;9145;48.588;9.250;2023-12-14T02:24:28;6.90;99.90
18041;DHT22;9145;48.588;9.250;2023-12-14T02:26:56;6.90;99.90
18041;DHT22;9145;48.588;9.250;2023-12-14T02:29:23;6.90;99.90
18041;DHT22;9145;48.588;9.250;2023-12-14T02:31:50;6.80;99.90
18041;DHT22;9145;48.588;9.250;2023-12-14T02:34:16;6.80;99.90
18041;DHT22;9145;48.588;9.250;2023-12-14T02:36:44;6.70;99.90
18041;DHT22;9145;48.588;9.250;2023-12-14T02:39:11;6.60;99.90
18041;DHT22;9145;48.588;9.250;2023-12-14T02:41:39;6.60;99.90
18041;DHT22;9145;48.588;9.250;2023-12-14T02:44:06;6.50;99.90
18041;DHT22;9145;48.588;9.250;2023-12-14T02:46:33;6.50;99.90
18041;DHT22;9145;48.588;9.250;2023-12-14T02:48:59;6.50;99.90
18041;DHT22;9145;48.588;9.250;2023-12-14T02:51:26;6.50;99.90
18041;DHT22;9145;48.588;9.250;2023-12-14T02:53:53;6.50;99.90
18041;DHT22;9145;48.588;9.250;2023-12-14T02:56:22;6.50;99.90
18041;DHT22;9145;48.588;9.250;2023-12-14T02:58:50;6.50;99.90
18041;DHT22;9145;48.588;9.250;2023-12-14T03:01:19;6.60;99.90
18041;DHT22;9145;48.588;9.250;2023-12-14T03:03:47;6.60;99.90
18041;DHT22;9145;48.588;9.250;2023-12-14T03:06:13;6.70;99.90
18041;DHT22;9145;48.588;9.250;2023-12-14T03:08:40;6.70;99.90
18041;DHT22;9145;48.588;9.250;2023-12-14T03:11:07;6.70;99.90
18041;DHT22;9145;48.588;9.250;2023-12-14T03:13:34;6.70;99.90
18041;DHT22;9145;48.588;9.250;2023-12-14T03:16:02;6.70;99.90
18041;DHT22;9145;48.588;9.250;2023-12-14T03:18:29;6.70;99.90
18041;DHT22;9145;48.588;9.250;2023-12-14T03:20:56;6.70;99.90
18041;DHT22;9145;48.588;9.250;2023-12-14T03:23:23;6.80;99.90
18041;DHT22;9145;48.588;9.250;2023-12-14T03:25:49;6.70;99.90
18041;DHT22;9145;48.588;9.250;2023-12-14T03:28:16;6.80;99.90
18041;DHT22;9145;48.588;9.250;2023-12-14T03:30:43;6.80;99.90
18041;DHT22;9145;48.588;9.250;2023-12-14T03:33:11;6.90;99.90
18041;DHT22;9145;48.588;9.250;2023-12-14T03:35:38;6.80;99.90
18041;DHT22;9145;48.588;9.250;2023-12-14T03:38:07;6.90;99.90
18041;DHT22;9145;48.588;9.250;2023-12-14T03:40:34;6.90;99.90
18041;DHT22;9145;48.588;9.250;2023-12-14T03:43:01;7.00;99.90
18041;DHT22;9145;48.588;9.250;2023-12-14T03:45:28;7.00;99.90
18041;DHT22;9145;48.588;9.250;2023-12-14T03:47:55;7.00;99.90
18041;DHT22;9145;48.588;9.250;2023-12-14T03:50:23;7.00;99.90
18041;DHT22;9145;48.588;9.250;2023-12-14T03:52:50;7.00;99.90
18041;DHT22;9145;48.588;9.250;2023-12-14T03:55:17;7.00;99.90
18041;DHT22;9145;48.588;9.250;2023-12-14T03:57:44;7.00;99.90
18041;DHT22;9145;48.588;9.250;2023-12-14T04:00:11;7.00;99.90
18041;DHT22;9145;48.588;9.250;2023-12-14T04:02:39;7.10;99.90
18041;DHT22;9145;48.588;9.250;2023-12-14T04:05:06;7.20;99.90
18041;DHT22;9145;48.588;9.250;2023-12-14T04:07:35;7.30;99.90
18041;DHT22;9145;48.588;9.250;2023-12-14T04:10:05;7.30;99.90
18041;DHT22;9145;48.588;9.250;2023-12-14T04:12:32;7.30;99.90
18041;DHT22;9145;48.588;9.250;2023-12-14T04:14:59;7.40;99.90
18041;DHT22;9145;48.588;9.250;2023-12-14T04:17:26;7.30;99.90
18041;DHT22;9145;48.588;9.250;2023-12-14T04:19:53;7.30;99.90
18041;DHT22;9145;48.588;9.250;2023-12-14T04:22:19;7.30;99.90
18041;DHT22;9145;48.588;9.250;2023-12-14T04:24:48;7.40;99.90
18041;DHT22;9145;48.588;9.250;2023-12-14T04:27:14;7.50;99.90
18041;DHT22;9145;48.588;9.250;2023-12-14T04:29:41;7.40;99.90
18041;DHT22;9145;48.588;9.250;2023-12-14T04:32:08;7.40;99.90
18041;DHT22;9145;48.588;9.250;2023-12-14T04:34:35;7.30;99.90
18041;DHT22;9145;48.588;9.250;2023-12-14T04:37:02;7.30;99.90
18041;DHT22;9145;48.588;9.250;2023-12-14T04:39:29;7.20;99.90
18041;DHT22;9145;48.588;9.250;2023-12-14T04:41:57;7.10;99.90
18041;DHT22;9145;48.588;9.250;2023-12-14T04:44:24;7.10;99.90
18041;DHT22;9145;48.588;9.250;2023-12-14T04:46:51;7.10;99.90
18041;DHT22;9145;48.588;9.250;2023-12-14T04:49:18;7.10;99.90
18041;DHT22;9145;48.588;9.250;2023-12-14T04:51:46;7.10;99.90
18041;DHT22;9145;48.588;9.250;2023-12-14T04:54:12;7.10;99.90
18041;DHT22;9145;48.588;9.250;2023-12-14T04:56:39;7.10;99.90
18041;DHT22;9145;48.588;9.250;2023-12-14T04:59:08;7.10;99.90
18041;DHT22;9145;48.588;9.250;2023-12-14T05:01:35;7.10;99.90
18041;DHT22;9145;48.588;9.250;2023-12-14T05:04:01;7.10;99.90
18041;DHT22;9145;48.588;9.250;2023-12-14T05:06:29;7.10;99.90
18041;DHT22;9145;48.588;9.250;2023-12-14T05:08:58;7.20;99.90
18041;DHT22;9145;48.588;9.250;2023-12-14T05:11:27;7.20;99.90
18041;DHT22;9145;48.588;9.250;2023-12-14T05:13:54;7.30;99.90
18041;DHT22;9145;48.588;9.250;2023-12-14T05:16:23;7.30;99.90
18041;DHT22;9145;48.588;9.250;2023-12-14T05:18:52;7.20;99.90
18041;DHT22;9145;48.588;9.250;2023-12-14T05:21:19;7.10;99.90
18041;DHT22;9145;48.588;9.250;2023-12-14T05:23:45;7.00;99.90
18041;DHT22;9145;48.588;9.250;2023-12-14T05:26:12;7.00;99.90
18041;DHT22;9145;48.588;9.250;2023-12-14T05:28:39;7.00;99.90
18041;DHT22;9145;48.588;9.250;2023-12-14T05:31:06;7.00;99.90
18041;DHT22;9145;48.588;9.250;2023-12-14T05:33:38;6.90;99.90
18041;DHT22;9145;48.588;9.250;2023-12-14T05:36:05;6.90;99.90
18041;DHT22;9145;48.588;9.250;2023-12-14T05:38:36;6.90;99.90
18041;DHT22;9145;48.588;9.250;2023-12-14T05:41:03;6.80;99.90
18041;DHT22;9145;48.588;9.250;2023-12-14T05:43:29;6.80;99.90
18041;DHT22;9145;48.588;9.250;2023-12-14T05:45:56;6.80;99.90
18041;DHT22;9145;48.588;9.250;2023-12-14T05:48:23;6.70;99.90
18041;DHT22;9145;48.588;9.250;2023-12-14T05:50:53;6.70;99.90
18041;DHT22;9145;48.588;9.250;2023-12-14T05:53:20;6.70;99.90
18041;DHT22;9145;48.588;9.250;2023-12-14T05:55:47;6.60;99.90
18041;DHT22;9145;48.588;9.250;2023-12-14T05:58:14;6.60;99.90
18041;DHT22;9145;48.588;9.250;2023-12-14T06:00:41;6.60;99.90
18041;DHT22;9145;48.588;9.250;2023-12-14T06:03:07;6.50;99.90
18041;DHT22;9145;48.588;9.250;2023-12-14T06:05:34;6.50;99.90
18041;DHT22;9145;48.588;9.250;2023-12-14T06:08:02;6.50;99.90
18041;DHT22;9145;48.588;9.250;2023-12-14T06:10:29;6.50;99.90
18041;DHT22;9145;48.588;9.250;2023-12-14T06:12:58;6.60;99.90
18041;DHT22;9145;48.588;9.250;2023-12-14T06:15:24;6.60;99.90
18041;DHT22;9145;48.588;9.250;2023-12-14T06:17:51;6.60;99.90
18041;DHT22;9145;48.588;9.250;2023-12-14T06:20:18;6.60;99.90
18041;DHT22;9145;48.588;9.250;2023-12-14T06:22:45;6.60;99.90
18041;DHT22;9145;48.588;9.250;2023-12-14T06:25:13;6.70;99.90
18041;DHT22;9145;48.588;9.250;2023-12-14T06:27:41;6.70;99.90
18041;DHT22;9145;48.588;9.250;2023-12-14T06:30:09;6.70;99.90
18041;DHT22;9145;48.588;9.250;2023-12-14T06:32:36;6.70;99.90
18041;DHT22;9145;48.588;9.250;2023-12-14T06:35:05;6.70;99.90
18041;DHT22;9145;48.588;9.250;2023-12-14T06:37:31;6.70;99.90
18041;DHT22;9145;48.588;9.250;2023-12-14T06:39:59;6.70;99.90
18041;DHT22;9145;48.588;9.250;2023-12-14T06:42:28;6.70;99.90
18041;DHT22;9145;48.588;9.250;2023-12-14T06:44:55;6.70;99.90
18041;DHT22;9145;48.588;9.250;2023-12-14T06:47:22;6.70;99.90
18041;DHT22;9145;48.588;9.250;2023-12-14T06:49:49;6.70;99.90
18041;DHT22;9145;48.588;9.250;2023-12-14T06:52:16;6.70;99.90
18041;DHT22;9145;48.588;9.250;2023-12-14T06:54:43;6.70;99.90
18041;DHT22;9145;48.588;9.250;2023-12-14T06:57:09;6.70;99.90
18041;DHT22;9145;48.588;9.250;2023-12-14T06:59:38;6.70;99.90
18041;DHT22;9145;48.588;9.250;2023-12-14T07:02:04;6.70;99.90
18041;DHT22;9145;48.588;9.250;2023-12-14T07:04:31;6.70;99.90
18041;DHT22;9145;48.588;9.250;2023-12-14T07:06:58;6.70;99.90
18041;DHT22;9145;48.588;9.250;2023-12-14T07:09:25;6.70;99.90
18041;DHT22;9145;48.588;9.250;2023-12-14T07:11:52;6.60;99.90
18041;DHT22;9145;48.588;9.250;2023-12-14T07:14:19;6.70;99.90
18041;DHT22;9145;48.588;9.250;2023-12-14T07:16:47;6.70;99.90
18041;DHT22;9145;48.588;9.250;2023-12-14T07:19:14;6.70;99.90
18041;DHT22;9145;48.588;9.250;2023-12-14T07:21:40;6.70;99.90
18041;DHT22;9145;48.588;9.250;2023-12-14T07:24:07;6.70;99.90
18041;DHT22;9145;48.588;9.250;2023-12-14T07:26:34;6.80;99.90
18041;DHT22;9145;48.588;9.250;2023-12-14T07:29:01;6.90;99.90
18041;DHT22;9145;48.588;9.250;2023-12-14T07:31:28;6.90;99.90
18041;DHT22;9145;48.588;9.250;2023-12-14T07:33:56;6.90;99.90
18041;DHT22;9145;48.588;9.250;2023-12-14T07:36:24;7.00;99.90
18041;DHT22;9145;48.588;9.250;2023-12-14T07:38:51;7.00;99.90
18041;DHT22;9145;48.588;9.250;2023-12-14T07:41:18;7.00;99.90
18041;DHT22;9145;48.588;9.250;2023-12-14T07:43:45;7.10;99.90
18041;DHT22;9145;48.588;9.250;2023-12-14T07:46:11;7.10;99.90
18041;DHT22;9145;48.588;9.250;2023-12-14T07:48:38;7.10;99.90
18041;DHT22;9145;48.588;9.250;2023-12-14T07:51:06;7.00;99.90
18041;DHT22;9145;48.588;9.250;2023-12-14T07:53:33;7.00;99.90
18041;DHT22;9145;48.588;9.250;2023-12-14T07:56:00;7.00;99.90
18041;DHT22;9145;48.588;9.250;2023-12-14T07:58:28;7.00;99.90
18041;DHT22;9145;48.588;9.250;2023-12-14T08:00:54;7.10;99.90
18041;DHT22;9145;48.588;9.250;2023-12-14T08:03:21;7.20;99.90
18041;DHT22;9145;48.588;9.250;2023-12-14T08:05:48;7.20;99.90
18041;DHT22;9145;48.588;9.250;2023-12-14T08:08:17;7.20;99.90
18041;DHT22;9145;48.588;9.250;2023-12-14T08:10:43;7.20;99.90
18041;DHT22;9145;48.588;9.250;2023-12-14T08:13:10;7.20;99.90
18041;DHT22;9145;48.588;9.250;2023-12-14T08:15:37;7.20;99.90
18041;DHT22;9145;48.588;9.250;2023-12-14T08:18:04;7.20;99.90
18041;DHT22;9145;48.588;9.250;2023-12-14T08:20:31;7.20;99.90
18041;DHT22;9145;48.588;9.250;2023-12-14T08:22:58;7.20;99.90
18041;DHT22;9145;48.588;9.250;2023-12-14T08:25:26;7.10;99.90
18041;DHT22;9145;48.588;9.250;2023-12-14T08:27:53;7.10;99.90
18041;DHT22;9145;48.588;9.250;2023-12-14T08:30:20;7.20;99.90
18041;DHT22;9145;48.588;9.250;2023-12-14T08:32:46;7.20;99.90
18041;DHT22;9145;48.588;9.250;2023-12-14T08:35:13;7.30;99.90
18041;DHT22;9145;48.588;9.250;2023-12-14T08:37:40;7.30;99.90
18041;DHT22;9145;48.588;9.250;2023-12-14T08:40:10;7.30;99.90
18041;DHT22;9145;48.588;9.250;2023-12-14T08:42:38;7.40;99.90
18041;DHT22;9145;48.588;9.250;2023-12-14T08:45:08;7.40;99.90
18041;DHT22;9145;48.588;9.250;2023-12-14T08:47:37;7.40;99.90
18041;DHT22;9145;48.588;9.250;2023-12-14T08:50:04;7.30;99.90
18041;DHT22;9145;48.588;9.250;2023-12-14T08:52:31;7.30;99.90
18041;DHT22;9145;48.588;9.250;2023-12-14T08:54:58;7.20;99.90
18041;DHT22;9145;48.588;9.250;2023-12-14T08:57:25;7.20;99.90
18041;DHT22;9145;48.588;9.250;2023-12-14T08:59:53;7.20;99.90
18041;DHT22;9145;48.588;9.250;2023-12-14T09:02:20;7.20;99.90
18041;DHT22;9145;48.588;9.250;2023-12-14T09:04:47;7.20;99.90
18041;DHT22;9145;48.588;9.250;2023-12-14T09:07:14;7.20;99.90
18041;DHT22;9145;48.588;9.250;2023-12-14T09:09:41;7.30;99.90
18041;DHT22;9145;48.588;9.250;2023-12-14T09:12:08;7.30;99.90
18041;DHT22;9145;48.588;9.250;2023-12-14T09:14:35;7.40;99.90
18041;DHT22;9145;48.588;9.250;2023-12-14T09:17:03;7.40;99.90
18041;DHT22;9145;48.588;9.250;2023-12-14T09:19:30;7.40;99.90
18041;DHT22;9145;48.588;9.250;2023-12-14T09:21:57;7.40;99.90
18041;DHT22;9145;48.588;9.250;2023-12-14T09:24:24;7.40;99.90
18041;DHT22;9145;48.588;9.250;2023-12-14T09:26:51;7.50;99.90
18041;DHT22;9145;48.588;9.250;2023-12-14T09:29:17;7.50;99.90
18041;DHT22;9145;48.588;9.250;2023-12-14T09:31:45;7.50;99.90
18041;DHT22;9145;48.588;9.250;2023-12-14T09:34:13;7.60;99.90
18041;DHT22;9145;48.588;9.250;2023-12-14T09:36:40;7.60;99.90
18041;DHT22;9145;48.588;9.250;2023-12-14T09:39:07;7.70;99.90
18041;DHT22;9145;48.588;9.250;2023-12-14T09:41:36;7.70;99.90
18041;DHT22;9145;48.588;9.250;2023-12-14T09:44:03;7.80;99.90
18041;DHT22;9145;48.588;9.250;2023-12-14T09:46:31;7.80;99.90
18041;DHT22;9145;48.588;9.250;2023-12-14T09:49:00;7.80;99.90
18041;DHT22;9145;48.588;9.250;2023-12-14T09:51:29;7.80;99.90
18041;DHT22;9145;48.588;9.250;2023-12-14T09:53:56;7.90;99.90
18041;DHT22;9145;48.588;9.250;2023-12-14T09:56:24;7.90;99.90
18041;DHT22;9145;48.588;9.250;2023-12-14T09:58:51;7.90;99.90
18041;DHT22;9145;48.588;9.250;2023-12-14T10:01:21;7.90;99.90
18041;DHT22;9145;48.588;9.250;2023-12-14T10:03:49;8.00;99.90
18041;DHT22;9145;48.588;9.250;2023-12-14T10:06:18;8.00;99.90
18041;DHT22;9145;48.588;9.250;2023-12-14T10:08:55;8.10;99.90
18041;DHT22;9145;48.588;9.250;2023-12-14T10:11:22;8.10;99.90
18041;DHT22;9145;48.588;9.250;2023-12-14T10:13:49;8.20;99.90
18041;DHT22;9145;48.588;9.250;2023-12-14T10:16:27;8.30;99.90
18041;DHT22;9145;48.588;9.250;2023-12-14T10:18:55;8.30;99.90
18041;DHT22;9145;48.588;9.250;2023-12-14T10:21:23;8.30;99.90
18041;DHT22;9145;48.588;9.250;2023-12-14T10:23:49;8.30;99.90
18041;DHT22;9145;48.588;9.250;2023-12-14T10:26:18;8.40;99.90
18041;DHT22;9145;48.588;9.250;2023-12-14T10:28:45;8.30;99.90
18041;DHT22;9145;48.588;9.250;2023-12-14T10:31:12;8.20;99.90
18041;DHT22;9145;48.588;9.250;2023-12-14T10:33:39;8.20;99.90
18041;DHT22;9145;48.588;9.250;2023-12-14T10:36:06;8.20;99.90
18041;DHT22;9145;48.588;9.250;2023-12-14T10:38:37;8.20;99.90
18041;DHT22;9145;48.588;9.250;2023-12-14T10:41:05;8.20;99.90
18041;DHT22;9145;48.588;9.250;2023-12-14T10:43:36;8.20;99.90
18041;DHT22;9145;48.588;9.250;2023-12-14T10:46:05;8.30;99.90
18041;DHT22;9145;48.588;9.250;2023-12-14T10:48:34;8.30;99.90
18041;DHT22;9145;48.588;9.250;2023-12-14T10:51:02;8.40;99.90
18041;DHT22;9145;48.588;9.250;2023-12-14T10:53:30;8.40;99.90
18041;DHT22;9145;48.588;9.250;2023-12-14T10:55:57;8.50;99.90
18041;DHT22;9145;48.588;9.250;2023-12-14T10:58:26;8.70;99.90
18041;DHT22;9145;48.588;9.250;2023-12-14T11:01:01;8.80;99.90
18041;DHT22;9145;48.588;9.250;2023-12-14T11:03:33;9.00;99.90
18041;DHT22;9145;48.588;9.250;2023-12-14T11:06:00;8.90;99.90
18041;DHT22;9145;48.588;9.250;2023-12-14T11:08:27;9.00;99.90
18041;DHT22;9145;48.588;9.250;2023-12-14T11:10:59;9.00;99.90
18041;DHT22;9145;48.588;9.250;2023-12-14T11:13:35;8.90;99.90
18041;DHT22;9145;48.588;9.250;2023-12-14T11:16:06;9.00;99.90
18041;DHT22;9145;48.588;9.250;2023-12-14T11:18:32;9.10;99.90
18041;DHT22;9145;48.588;9.250;2023-12-14T11:21:00;9.10;99.90
18041;DHT22;9145;48.588;9.250;2023-12-14T11:23:30;9.10;99.90
18041;DHT22;9145;48.588;9.250;2023-12-14T11:25:58;9.10;99.90
18041;DHT22;9145;48.588;9.250;2023-12-14T11:28:28;9.10;99.90
18041;DHT22;9145;48.588;9.250;2023-12-14T11:30:55;9.10;99.90
18041;DHT22;9145;48.588;9.250;2023-12-14T11:33:24;9.20;99.90
18041;DHT22;9145;48.588;9.250;2023-12-14T11:35:52;9.30;99.90
18041;DHT22;9145;48.588;9.250;2023-12-14T11:38:20;9.30;99.90
18041;DHT22;9145;48.588;9.250;2023-12-14T11:40:49;9.50;99.90
18041;DHT22;9145;48.588;9.250;2023-12-14T11:43:16;9.60;99.90
18041;DHT22;9145;48.588;9.250;2023-12-14T11:45:45;9.80;99.90
18041;DHT22;9145;48.588;9.250;2023-12-14T11:48:13;9.80;99.90
18041;DHT22;9145;48.588;9.250;2023-12-14T11:50:42;9.80;99.90
18041;DHT22;9145;48.588;9.250;2023-12-14T11:53:10;9.80;99.90
18041;DHT22;9145;48.588;9.250;2023-12-14T11:55:39;9.80;99.90
18041;DHT22;9145;48.588;9.250;2023-12-14T11:58:06;9.60;99.90
18041;DHT22;9145;48.588;9.250;2023-12-14T12:00:34;9.70;99.90
18041;DHT22;9145;48.588;9.250;2023-12-14T12:03:10;9.80;99.90
18041;DHT22;9145;48.588;9.250;2023-12-14T12:05:38;9.80;99.90
18041;DHT22;9145;48.588;9.250;2023-12-14T12:08:08;9.70;99.90
18041;DHT22;9145;48.588;9.250;2023-12-14T12:10:36;9.60;99.90
18041;DHT22;9145;48.588;9.250;2023-12-14T12:13:05;9.40;99.90
18041;DHT22;9145;48.588;9.250;2023-12-14T12:15:33;9.20;99.90
18041;DHT22;9145;48.588;9.250;2023-12-14T12:18:05;9.10;99.90
18041;DHT22;9145;48.588;9.250;2023-12-14T12:20:32;8.90;99.90
18041;DHT22;9145;48.588;9.250;2023-12-14T12:23:00;8.90;99.90
18041;DHT22;9145;48.588;9.250;2023-12-14T12:25:29;8.80;99.90
18041;DHT22;9145;48.588;9.250;2023-12-14T12:27:56;8.80;99.90
18041;DHT22;9145;48.588;9.250;2023-12-14T12:30:24;8.70;99.90
18041;DHT22;9145;48.588;9.250;2023-12-14T12:32:51;8.80;99.90
18041;DHT22;9145;48.588;9.250;2023-12-14T12:35:18;8.70;99.90
18041;DHT22;9145;48.588;9.250;2023-12-14T12:37:45;8.70;99.90
18041;DHT22;9145;48.588;9.250;2023-12-14T12:40:12;8.70;99.90
18041;DHT22;9145;48.588;9.250;2023-12-14T12:42:46;8.70;99.90
18041;DHT22;9145;48.588;9.250;2023-12-14T12:45:14;8.80;99.90
18041;DHT22;9145;48.588;9.250;2023-12-14T12:47:42;8.80;99.90
18041;DHT22;9145;48.588;9.250;2023-12-14T12:50:09;8.80;99.90
18041;DHT22;9145;48.588;9.250;2023-12-14T12:52:36;8.90;99.90
18041;DHT22;9145;48.588;9.250;2023-12-14T12:55:05;9.00;99.90
18041;DHT22;9145;48.588;9.250;2023-12-14T12:57:32;9.00;99.90
18041;DHT22;9145;48.588;9.250;2023-12-14T13:00:00;9.10;99.90
18041;DHT22;9145;48.588;9.250;2023-12-14T13:02:27;9.20;99.90
18041;DHT22;9145;48.588;9.250;2023-12-14T13:04:54;9.20;99.90
18041;DHT22;9145;48.588;9.250;2023-12-14T13:07:21;9.10;99.90
18041;DHT22;9145;48.588;9.250;2023-12-14T13:09:48;9.10;99.90
18041;DHT22;9145;48.588;9.250;2023-12-14T13:12:15;9.10;99.90
18041;DHT22;9145;48.588;9.250;2023-12-14T13:14:42;9.10;99.90
18041;DHT22;9145;48.588;9.250;2023-12-14T13:17:10;9.10;99.90
18041;DHT22;9145;48.588;9.250;2023-12-14T13:19:37;9.10;99.90
18041;DHT22;9145;48.588;9.250;2023-12-14T13:22:04;9.10;99.90
18041;DHT22;9145;48.588;9.250;2023-12-14T13:24:31;9.00;99.90
18041;DHT22;9145;48.588;9.250;2023-12-14T13:26:57;8.90;99.90
18041;DHT22;9145;48.588;9.250;2023-12-14T13:29:24;8.80;99.90
18041;DHT22;9145;48.588;9.250;2023-12-14T13:31:51;8.80;99.90
18041;DHT22;9145;48.588;9.250;2023-12-14T13:34:19;8.80;99.90
18041;DHT22;9145;48.588;9.250;2023-12-14T13:36:46;8.80;99.90
18041;DHT22;9145;48.588;9.250;2023-12-14T13:39:13;8.80;99.90
18041;DHT22;9145;48.588;9.250;2023-12-14T13:41:40;8.90;99.90
18041;DHT22;9145;48.588;9.250;2023-12-14T13:44:07;8.90;99.90
18041;DHT22;9145;48.588;9.250;2023-12-14T13:46:34;8.90;99.90
18041;DHT22;9145;48.588;9.250;2023-12-14T13:49:01;8.90;99.90
18041;DHT22;9145;48.588;9.250;2023-12-14T13:51:30;9.00;99.90
18041;DHT22;9145;48.588;9.250;2023-12-14T13:53:57;9.00;99.90
18041;DHT22;9145;48.588;9.250;2023-12-14T13:56:23;8.90;99.90
18041;DHT22;9145;48.588;9.250;2023-12-14T13:58:51;8.70;99.90
18041;DHT22;9145;48.588;9.250;2023-12-14T14:01:18;8.60;99.90
18041;DHT22;9145;48.588;9.250;2023-12-14T14:03:44;8.50;99.90
18041;DHT22;9145;48.588;9.250;2023-12-14T14:06:12;8.50;99.90
18041;DHT22;9145;48.588;9.250;2023-12-14T14:08:41;8.40;99.90
18041;DHT22;9145;48.588;9.250;2023-12-14T14:11:08;8.40;99.90
18041;DHT22;9145;48.588;9.250;2023-12-14T14:13:35;8.40;99.90
18041;DHT22;9145;48.588;9.250;2023-12-14T14:16:02;8.30;99.90
18041;DHT22;9145;48.588;9.250;2023-12-14T14:18:30;8.00;99.90
18041;DHT22;9145;48.588;9.250;2023-12-14T14:20:57;7.80;99.90
18041;DHT22;9145;48.588;9.250;2023-12-14T14:23:24;7.60;99.90
18041;DHT22;9145;48.588;9.250;2023-12-14T14:25:53;7.40;99.90
18041;DHT22;9145;48.588;9.250;2023-12-14T14:28:20;7.40;99.90
18041;DHT22;9145;48.588;9.250;2023-12-14T14:30:48;7.40;99.90
18041;DHT22;9145;48.588;9.250;2023-12-14T14:33:15;7.30;99.90
18041;DHT22;9145;48.588;9.250;2023-12-14T14:35:43;7.30;99.90
18041;DHT22;9145;48.588;9.250;2023-12-14T14:38:11;7.40;99.90
18041;DHT22;9145;48.588;9.250;2023-12-14T14:40:37;7.40;99.90
18041;DHT22;9145;48.588;9.250;2023-12-14T14:43:06;7.40;99.90
18041;DHT22;9145;48.588;9.250;2023-12-14T14:45:33;7.40;99.90
18041;DHT22;9145;48.588;9.250;2023-12-14T14:48:00;7.40;99.90
18041;DHT22;9145;48.588;9.250;2023-12-14T14:50:27;7.40;99.90
18041;DHT22;9145;48.588;9.250;2023-12-14T14:52:54;7.50;99.90
18041;DHT22;9145;48.588;9.250;2023-12-14T14:55:20;7.50;99.90
18041;DHT22;9145;48.588;9.250;2023-12-14T14:57:48;7.50;99.90
18041;DHT22;9145;48.588;9.250;2023-12-14T15:00:17;7.40;99.90
18041;DHT22;9145;48.588;9.250;2023-12-14T15:02:44;7.40;99.90
18041;DHT22;9145;48.588;9.250;2023-12-14T15:05:11;7.30;99.90
18041;DHT22;9145;48.588;9.250;2023-12-14T15:07:37;7.30;99.90
18041;DHT22;9145;48.588;9.250;2023-12-14T15:10:06;7.30;99.90
18041;DHT22;9145;48.588;9.250;2023-12-14T15:12:33;7.40;99.90
18041;DHT22;9145;48.588;9.250;2023-12-14T15:15:00;7.40;99.90
18041;DHT22;9145;48.588;9.250;2023-12-14T15:17:28;7.40;99.90
18041;DHT22;9145;48.588;9.250;2023-12-14T15:19:55;7.50;99.90
18041;DHT22;9145;48.588;9.250;2023-12-14T15:22:22;7.50;99.90
18041;DHT22;9145;48.588;9.250;2023-12-14T15:24:48;7.50;99.90
18041;DHT22;9145;48.588;9.250;2023-12-14T15:27:15;7.60;99.90
18041;DHT22;9145;48.588;9.250;2023-12-14T15:29:42;7.60;99.90
18041;DHT22;9145;48.588;9.250;2023-12-14T15:32:09;7.60;99.90
18041;DHT22;9145;48.588;9.250;2023-12-14T15:34:38;7.70;99.90
18041;DHT22;9145;48.588;9.250;2023-12-14T15:37:05;7.70;99.90
18041;DHT22;9145;48.588;9.250;2023-12-14T15:39:32;7.70;99.90
18041;DHT22;9145;48.588;9.250;2023-12-14T15:41:59;7.70;99.90
18041;DHT22;9145;48.588;9.250;2023-12-14T15:44:26;7.70;99.90
18041;DHT22;9145;48.588;9.250;2023-12-14T15:46:53;7.70;99.90
18041;DHT22;9145;48.588;9.250;2023-12-14T15:49:20;7.80;99.90
18041;DHT22;9145;48.588;9.250;2023-12-14T15:51:48;7.70;99.90
18041;DHT22;9145;48.588;9.250;2023-12-14T15:54:15;7.70;99.90
18041;DHT22;9145;48.588;9.250;2023-12-14T15:56:42;7.80;99.90
18041;DHT22;9145;48.588;9.250;2023-12-14T15:59:09;7.80;99.90
18041;DHT22;9145;48.588;9.250;2023-12-14T16:01:36;7.80;99.90
18041;DHT22;9145;48.588;9.250;2023-12-14T16:04:05;7.80;99.90